Langenes — JXJU — position and weather

sailwx.info

Track history (hours):
 
Tides and Currents Weather Stations Pressure Air Temp Water Temp Dewpoint Dewpoint Depression Visibility Wind Speed Wind Dir Waves Ship Positions

Langenes

Last reported at 2017-Dec-15 02:30 UTC. Time now 2017-Dec-18 12:46 UTC.
Position N 70°34' E 019°01'.

Length 57 m; draft 7.4 m.

Type: Fishing. MMSI: 258186000.

Date/timePositionNaut miles runAvg speedWind from/ knotsBaromVisibWave heightAir tempDewpointWater temp
2017-Dec-15 02:30N 70°34' E 019°01'1711.5
2017-Dec-15 01:01N 70°18' E 019°23'611.6
2017-Dec-15 00:30N 70°13' E 019°28'37 6.1
2017-Dec-14 18:29N 69°38' E 018°57'0 0.0
2017-Dec-14 17:59N 69°38' E 018°57'0 0.0
2017-Dec-14 17:29N 69°38' E 018°57'0 0.0
2017-Dec-14 16:59N 69°38' E 018°57'0 0.0
2017-Dec-14 16:29N 69°38' E 018°57'0 0.0
2017-Dec-14 15:59N 69°38' E 018°57'0 0.0
2017-Dec-14 14:59N 69°38' E 018°57'0 0.0
2017-Dec-14 14:29N 69°38' E 018°57'0 0.0
2017-Dec-14 13:59N 69°38' E 018°57'0 0.0
2017-Dec-14 13:29N 69°38' E 018°57'0 0.0
2017-Dec-14 12:59N 69°38' E 018°57'0 0.0
2017-Dec-14 12:29N 69°38' E 018°57'0 0.0
2017-Dec-14 11:59N 69°38' E 018°57'0 0.0
2017-Dec-14 11:29N 69°38' E 018°57'0 0.0
2017-Dec-14 10:59N 69°38' E 018°57'0 0.0
2017-Dec-14 10:29N 69°38' E 018°57'0 0.0
2017-Dec-14 09:59N 69°38' E 018°57'0 0.0
2017-Dec-14 09:29N 69°38' E 018°57'0 0.0
2017-Dec-14 08:59N 69°38' E 018°57'0 0.0
2017-Dec-14 08:30N 69°38' E 018°57'0 0.0
2017-Dec-14 08:00N 69°38' E 018°57'0 0.0
2017-Dec-14 07:29N 69°38' E 018°57'0 0.0
2017-Dec-14 07:00N 69°38' E 018°57'0 0.0
2017-Dec-14 06:30N 69°38' E 018°57'0 0.0
2017-Dec-14 06:00N 69°38' E 018°57'0 0.0
2017-Dec-14 05:30N 69°38' E 018°57'0 0.0
2017-Dec-14 05:00N 69°38' E 018°57'0 0.0
2017-Dec-14 04:29N 69°38' E 018°57'0 0.0
2017-Dec-14 04:00N 69°38' E 018°57'0 0.0
2017-Dec-14 03:30N 69°38' E 018°57'0 0.0
2017-Dec-14 03:00N 69°38' E 018°57'1 2.2
2017-Dec-14 02:30N 69°37' E 018°55'0 0.1
2017-Dec-14 02:00N 69°37' E 018°55'1 1.0
2017-Dec-14 01:30N 69°37' E 018°55'1 1.0
2017-Dec-14 01:00N 69°37' E 018°55'1 1.6
2017-Dec-14 00:29N 69°36' E 018°55'1 1.4
2017-Dec-14 00:00N 69°35' E 018°54'1 1.1
2017-Dec-13 23:30N 69°35' E 018°54'1 1.6
2017-Dec-13 23:00N 69°34' E 018°54'1 1.5
2017-Dec-13 22:30N 69°35' E 018°54'2 4.0
2017-Dec-13 22:00N 69°37' E 018°55'3 6.2
2017-Dec-13 21:30N 69°39' E 018°59'0 0.1
2017-Dec-13 21:00N 69°40' E 018°58'0 0.0
2017-Dec-13 20:30N 69°40' E 018°58'0 0.0
2017-Dec-13 19:59N 69°40' E 018°58'0 0.0
2017-Dec-13 19:30N 69°40' E 018°58'0 0.0
2017-Dec-13 19:00N 69°40' E 018°58'1 1.4
2017-Dec-13 18:30N 69°40' E 018°59'5 9.1
2017-Dec-13 18:00N 69°44' E 019°03'5 9.2
2017-Dec-13 17:29N 69°47' E 019°14'5 9.7
2017-Dec-13 16:59N 69°49' E 019°28'5 9.8
2017-Dec-13 16:30N 69°50' E 019°41'5 9.5
2017-Dec-13 16:00N 69°54' E 019°51'5 9.9
2017-Dec-13 15:30N 69°58' E 019°59'510.2
2017-Dec-13 15:00N 70°02' E 020°06'510.6
2017-Dec-13 14:30N 70°07' E 020°13'510.3
2017-Dec-13 14:00N 70°12' E 020°19'510.8
2017-Dec-13 13:30N 70°17' E 020°25'510.9
2017-Dec-13 13:00N 70°22' E 020°32'611.2
2017-Dec-13 12:30N 70°27' E 020°39'510.9
2017-Dec-13 12:00N 70°32' E 020°43'510.9
2017-Dec-13 11:30N 70°37' E 020°44'  
Track history (hours):
 
Tides and Currents Weather Stations Pressure Air Temp Water Temp Dewpoint Dewpoint Depression Visibility Wind Speed Wind Dir Waves Ship Positions

Langenes

Last reported at 2017-Dec-15 02:30 UTC. Time now 2017-Dec-18 12:46 UTC.
Position N 70°34' E 019°01'.

Length 57 m; draft 7.4 m.

Type: Fishing. MMSI: 258186000.

Date/timePositionNaut miles runAvg speedWind from/ knotsBaromVisibWave heightAir tempDewpointWater temp
2017-Dec-15 02:30N 70°34' E 019°01'1711.5
2017-Dec-15 01:01N 70°18' E 019°23'611.6
2017-Dec-15 00:30N 70°13' E 019°28'37 6.1
2017-Dec-14 18:29N 69°38' E 018°57'0 0.0
2017-Dec-14 17:59N 69°38' E 018°57'0 0.0
2017-Dec-14 17:29N 69°38' E 018°57'0 0.0
2017-Dec-14 16:59N 69°38' E 018°57'0 0.0
2017-Dec-14 16:29N 69°38' E 018°57'0 0.0
2017-Dec-14 15:59N 69°38' E 018°57'0 0.0
2017-Dec-14 14:59N 69°38' E 018°57'0 0.0
2017-Dec-14 14:29N 69°38' E 018°57'0 0.0
2017-Dec-14 13:59N 69°38' E 018°57'0 0.0
2017-Dec-14 13:29N 69°38' E 018°57'0 0.0
2017-Dec-14 12:59N 69°38' E 018°57'0 0.0
2017-Dec-14 12:29N 69°38' E 018°57'0 0.0
2017-Dec-14 11:59N 69°38' E 018°57'0 0.0
2017-Dec-14 11:29N 69°38' E 018°57'0 0.0
2017-Dec-14 10:59N 69°38' E 018°57'0 0.0
2017-Dec-14 10:29N 69°38' E 018°57'0 0.0
2017-Dec-14 09:59N 69°38' E 018°57'0 0.0
2017-Dec-14 09:29N 69°38' E 018°57'0 0.0
2017-Dec-14 08:59N 69°38' E 018°57'0 0.0
2017-Dec-14 08:30N 69°38' E 018°57'0 0.0
2017-Dec-14 08:00N 69°38' E 018°57'0 0.0
2017-Dec-14 07:29N 69°38' E 018°57'0 0.0
2017-Dec-14 07:00N 69°38' E 018°57'0 0.0
2017-Dec-14 06:30N 69°38' E 018°57'0 0.0
2017-Dec-14 06:00N 69°38' E 018°57'0 0.0
2017-Dec-14 05:30N 69°38' E 018°57'0 0.0
2017-Dec-14 05:00N 69°38' E 018°57'0 0.0
2017-Dec-14 04:29N 69°38' E 018°57'0 0.0
2017-Dec-14 04:00N 69°38' E 018°57'0 0.0
2017-Dec-14 03:30N 69°38' E 018°57'0 0.0
2017-Dec-14 03:00N 69°38' E 018°57'1 2.2
2017-Dec-14 02:30N 69°37' E 018°55'0 0.1
2017-Dec-14 02:00N 69°37' E 018°55'1 1.0
2017-Dec-14 01:30N 69°37' E 018°55'1 1.0
2017-Dec-14 01:00N 69°37' E 018°55'1 1.6
2017-Dec-14 00:29N 69°36' E 018°55'1 1.4
2017-Dec-14 00:00N 69°35' E 018°54'1 1.1
2017-Dec-13 23:30N 69°35' E 018°54'1 1.6
2017-Dec-13 23:00N 69°34' E 018°54'1 1.5
2017-Dec-13 22:30N 69°35' E 018°54'2 4.0
2017-Dec-13 22:00N 69°37' E 018°55'3 6.2
2017-Dec-13 21:30N 69°39' E 018°59'0 0.1
2017-Dec-13 21:00N 69°40' E 018°58'0 0.0
2017-Dec-13 20:30N 69°40' E 018°58'0 0.0
2017-Dec-13 19:59N 69°40' E 018°58'0 0.0
2017-Dec-13 19:30N 69°40' E 018°58'0 0.0
2017-Dec-13 19:00N 69°40' E 018°58'1 1.4
2017-Dec-13 18:30N 69°40' E 018°59'5 9.1
2017-Dec-13 18:00N 69°44' E 019°03'5 9.2
2017-Dec-13 17:29N 69°47' E 019°14'5 9.7
2017-Dec-13 16:59N 69°49' E 019°28'5 9.8
2017-Dec-13 16:30N 69°50' E 019°41'5 9.5
2017-Dec-13 16:00N 69°54' E 019°51'5 9.9
2017-Dec-13 15:30N 69°58' E 019°59'510.2
2017-Dec-13 15:00N 70°02' E 020°06'510.6
2017-Dec-13 14:30N 70°07' E 020°13'510.3
2017-Dec-13 14:00N 70°12' E 020°19'510.8
2017-Dec-13 13:30N 70°17' E 020°25'510.9
2017-Dec-13 13:00N 70°22' E 020°32'611.2
2017-Dec-13 12:30N 70°27' E 020°39'510.9
2017-Dec-13 12:00N 70°32' E 020°43'510.9
2017-Dec-13 11:30N 70°37' E 020°44'  

Dump ship's entire track history